Time;durP1;ratioP1;P1;durP2;ratioP2;P2;SDS_P1;SDS_P2;PMS_P1;PMS_P2;Temp;Humidity;BMP_temperature;BMP_pressure;BME280_temperature;BME280_humidity;BME280_pressure;Samples;Min_cycle;Max_cycle;Signal;HPM_P1;HPM_P2
2023/09/24 00:00:58;;;;;;;1.92;0.90;;;14.50;78.80;;;;;;5115304;28;20364;-72
2023/09/24 00:03:25;;;;;;;2.33;0.95;;;14.50;78.80;;;;;;5097241;28;20032;-72
2023/09/24 00:05:51;;;;;;;2.17;0.70;;;14.50;78.80;;;;;;5100704;28;20097;-73
2023/09/24 00:08:18;;;;;;;1.45;0.73;;;14.50;78.80;;;;;;5094758;28;20044;-72
2023/09/24 00:10:52;;;;;;;1.05;0.73;;;14.50;78.80;;;;;;5094446;28;20032;-72
2023/09/24 00:13:19;;;;;;;1.85;0.73;;;14.50;78.80;;;;;;5101007;28;20040;-72
2023/09/24 00:15:45;;;;;;;1.95;1.02;;;14.50;78.70;;;;;;5105649;28;20394;-72
2023/09/24 00:18:10;;;;;;;1.55;0.88;;;14.50;78.60;;;;;;5106911;28;20052;-72
2023/09/24 00:20:36;;;;;;;2.60;0.90;;;14.40;78.40;;;;;;5105614;28;20040;-72
2023/09/24 00:23:02;;;;;;;1.85;0.82;;;14.40;78.40;;;;;;5096662;28;20044;-72
2023/09/24 00:25:28;;;;;;;1.95;0.65;;;14.40;78.40;;;;;;5107947;28;20032;-72
2023/09/24 00:27:56;;;;;;;3.20;1.23;;;14.40;78.40;;;;;;5108225;28;20505;-72
2023/09/24 00:30:22;;;;;;;1.73;1.10;;;14.40;78.40;;;;;;5114271;28;20043;-73
2023/09/24 00:32:48;;;;;;;4.07;1.20;;;14.30;78.30;;;;;;5101616;28;20048;-72
2023/09/24 00:35:15;;;;;;;3.25;1.33;;;14.30;78.30;;;;;;5095796;28;20032;-72
2023/09/24 00:37:41;;;;;;;2.47;1.33;;;14.40;78.30;;;;;;5104344;28;20044;-73
2023/09/24 00:40:10;;;;;;;2.05;0.80;;;14.30;78.20;;;;;;5111863;28;20039;-72
2023/09/24 00:42:39;;;;;;;0.93;0.77;;;14.30;78.20;;;;;;5094065;28;20549;-72
2023/09/24 00:45:11;;;;;;;1.58;1.10;;;14.30;78.10;;;;;;5096024;28;20043;-72
2023/09/24 00:47:44;;;;;;;2.35;0.93;;;14.20;78.10;;;;;;5114021;28;20490;-72
2023/09/24 00:50:10;;;;;;;1.25;0.68;;;14.20;78.00;;;;;;5096028;28;20047;-72
2023/09/24 00:52:36;;;;;;;1.75;0.70;;;14.20;77.90;;;;;;5096732;28;20036;-73
2023/09/24 00:55:06;;;;;;;2.10;1.00;;;14.20;77.90;;;;;;5111649;28;20036;-73
2023/09/24 00:57:33;;;;;;;3.72;1.25;;;14.10;77.80;;;;;;5105417;28;20069;-72
2023/09/24 01:00:05;;;;;;;1.60;0.90;;;14.10;77.90;;;;;;5082976;28;20040;-73
2023/09/24 01:02:32;;;;;;;1.77;0.90;;;14.10;77.90;;;;;;5076429;28;20490;-72
2023/09/24 01:05:00;;;;;;;2.70;1.40;;;14.10;78.00;;;;;;5077344;28;20536;-72
2023/09/24 01:07:28;;;;;;;2.42;1.52;;;14.00;78.00;;;;;;5113384;28;20467;-73
2023/09/24 01:09:53;;;;;;;2.75;1.38;;;14.00;78.10;;;;;;5113571;28;20076;-73
2023/09/24 01:12:21;;;;;;;3.70;1.92;;;14.00;78.30;;;;;;5110370;28;20086;-72
2023/09/24 01:14:48;;;;;;;6.32;2.20;;;13.90;78.50;;;;;;5095737;28;20075;-72
2023/09/24 01:17:14;;;;;;;4.28;2.10;;;13.90;78.80;;;;;;5080140;28;20040;-72
2023/09/24 01:19:40;;;;;;;2.47;1.45;;;13.90;79.00;;;;;;5078827;28;20509;-72
2023/09/24 01:22:06;;;;;;;2.45;1.63;;;13.90;79.20;;;;;;5096547;28;20036;-72
2023/09/24 01:24:32;;;;;;;5.13;2.17;;;13.90;79.40;;;;;;5093272;28;20043;-73
2023/09/24 01:26:57;;;;;;;5.15;2.50;;;13.90;79.70;;;;;;5100762;28;20372;-72
2023/09/24 01:29:24;;;;;;;4.00;1.88;;;13.80;79.70;;;;;;5093927;28;20135;-73
2023/09/24 01:31:51;;;;;;;4.63;2.78;;;13.80;79.80;;;;;;5095376;28;20040;-73
2023/09/24 01:34:18;;;;;;;7.15;3.30;;;13.80;80.00;;;;;;5084780;28;20517;-73
2023/09/24 01:36:44;;;;;;;4.75;2.47;;;13.80;80.10;;;;;;5098109;28;20501;-73
2023/09/24 01:39:09;;;;;;;4.05;1.90;;;13.80;80.20;;;;;;5092396;28;20044;-72
2023/09/24 01:41:35;;;;;;;3.65;2.30;;;13.70;80.20;;;;;;5101075;28;20075;-73
2023/09/24 01:44:02;;;;;;;3.45;2.30;;;13.70;80.30;;;;;;5080805;28;20066;-73
2023/09/24 01:46:27;;;;;;;4.45;3.65;;;13.70;80.40;;;;;;5084785;28;20046;-72
2023/09/24 01:48:54;;;;;;;2.78;2.08;;;13.70;80.40;;;;;;5093976;28;20039;-71
2023/09/24 01:51:20;;;;;;;2.85;1.85;;;13.70;80.40;;;;;;5081382;28;20050;-71
2023/09/24 01:53:47;;;;;;;6.07;3.97;;;13.70;80.50;;;;;;5104193;28;20047;-71
2023/09/24 01:56:17;;;;;;;5.10;3.70;;;13.70;80.40;;;;;;5093472;28;20093;-71
2023/09/24 01:58:43;;;;;;;8.75;4.82;;;13.70;80.40;;;;;;5092295;28;20495;-71
2023/09/24 02:01:09;;;;;;;5.63;4.55;;;13.70;80.30;;;;;;5099124;28;20043;-71
2023/09/24 02:03:35;;;;;;;4.28;3.08;;;13.70;80.20;;;;;;5103870;28;20030;-72
2023/09/24 02:06:02;;;;;;;2.60;2.00;;;13.60;80.10;;;;;;5110897;28;20071;-72
2023/09/24 02:08:29;;;;;;;2.90;2.38;;;13.60;80.10;;;;;;5094082;28;20501;-73
2023/09/24 02:10:55;;;;;;;3.63;1.80;;;13.60;80.20;;;;;;5090532;28;20070;-73
2023/09/24 02:13:21;;;;;;;4.55;2.15;;;13.60;80.30;;;;;;5075199;28;20076;-73
2023/09/24 02:15:48;;;;;;;3.30;2.08;;;13.60;80.30;;;;;;5100139;28;20040;-73
2023/09/24 02:18:14;;;;;;;3.03;2.10;;;13.60;80.30;;;;;;5095698;28;20572;-73
2023/09/24 02:20:46;;;;;;;4.20;2.15;;;13.60;80.30;;;;;;5091965;28;20055;-73
2023/09/24 02:23:12;;;;;;;2.83;2.17;;;13.60;80.20;;;;;;5084881;28;20063;-73
2023/09/24 02:25:38;;;;;;;3.05;2.10;;;13.60;80.20;;;;;;5075066;28;20495;-73
2023/09/24 02:28:04;;;;;;;2.80;2.00;;;13.60;80.10;;;;;;5065435;28;20040;-73
2023/09/24 02:30:32;;;;;;;4.05;1.90;;;13.60;80.00;;;;;;5096447;28;20484;-72
2023/09/24 02:33:02;;;;;;;3.03;2.00;;;13.70;80.00;;;;;;5108609;28;20040;-73
2023/09/24 02:35:28;;;;;;;3.78;2.53;;;13.60;79.90;;;;;;5092890;28;20042;-73
2023/09/24 02:37:54;;;;;;;6.15;3.38;;;13.60;79.80;;;;;;5091758;28;20040;-73
2023/09/24 02:40:22;;;;;;;5.63;3.83;;;13.60;79.60;;;;;;5104942;28;20582;-73
2023/09/24 02:42:51;;;;;;;4.40;3.88;;;13.50;79.20;;;;;;5077649;28;20043;-73
2023/09/24 02:45:17;;;;;;;7.75;4.00;;;13.50;79.00;;;;;;5096796;28;20404;-72
2023/09/24 02:47:44;;;;;;;7.88;4.57;;;13.50;78.90;;;;;;5091710;28;20079;-72
2023/09/24 02:50:13;;;;;;;6.43;4.05;;;13.40;78.70;;;;;;5094129;28;20411;-72
2023/09/24 02:52:43;;;;;;;7.10;4.53;;;13.40;78.60;;;;;;5102065;28;20122;-73
2023/09/24 02:55:13;;;;;;;6.40;3.58;;;13.30;78.70;;;;;;5098389;28;20027;-73
2023/09/24 02:57:40;;;;;;;3.88;3.05;;;13.20;78.80;;;;;;5109901;28;20071;-73
2023/09/24 03:00:26;;;;;;;4.75;3.30;;;13.20;78.80;;;;;;5092315;28;20052;-73
2023/09/24 03:02:54;;;;;;;4.30;2.75;;;13.20;79.00;;;;;;5095938;28;20044;-73
2023/09/24 03:05:24;;;;;;;5.78;2.90;;;13.10;79.10;;;;;;5111820;28;20047;-73
2023/09/24 03:07:54;;;;;;;5.38;2.47;;;13.10;79.20;;;;;;5115449;28;20487;-73
2023/09/24 03:10:21;;;;;;;3.70;2.53;;;13.10;79.50;;;;;;5115966;28;20043;-73
2023/09/24 03:12:48;;;;;;;3.75;2.47;;;13.10;79.70;;;;;;5107962;28;20491;-73
2023/09/24 03:15:14;;;;;;;4.72;2.85;;;13.10;79.70;;;;;;5098054;28;20036;-73
2023/09/24 03:17:42;;;;;;;4.13;2.55;;;13.10;79.90;;;;;;5085504;28;20086;-73
2023/09/24 03:20:15;;;;;;;4.18;2.30;;;13.10;79.90;;;;;;5114545;28;20127;-73
2023/09/24 03:22:42;;;;;;;5.03;3.17;;;13.10;80.00;;;;;;5115729;28;20559;-73
2023/09/24 03:25:10;;;;;;;4.15;2.85;;;13.10;80.00;;;;;;5113939;28;20050;-73
2023/09/24 03:27:38;;;;;;;8.57;3.97;;;13.10;80.00;;;;;;5104808;28;20044;-73
2023/09/24 03:30:07;;;;;;;8.07;4.40;;;13.10;79.90;;;;;;5104475;28;20040;-73
2023/09/24 03:32:33;;;;;;;5.22;3.60;;;13.00;79.70;;;;;;5110189;28;20044;-73
2023/09/24 03:34:59;;;;;;;6.05;3.55;;;13.00;79.50;;;;;;5107124;28;20061;-73
2023/09/24 03:37:25;;;;;;;9.35;4.20;;;13.00;79.50;;;;;;5088834;28;20436;-73
2023/09/24 03:39:51;;;;;;;9.35;4.10;;;13.00;79.50;;;;;;5092871;28;20047;-73
2023/09/24 03:42:17;;;;;;;6.93;4.03;;;13.00;79.30;;;;;;5113850;28;20122;-73
2023/09/24 03:44:43;;;;;;;7.75;3.75;;;12.90;79.00;;;;;;5104576;28;20122;-73
2023/09/24 03:47:08;;;;;;;8.55;5.00;;;12.90;78.90;;;;;;5094789;28;20079;-74
2023/09/24 03:49:34;;;;;;;5.70;3.88;;;12.90;78.90;;;;;;5107583;28;20039;-73
2023/09/24 03:52:00;;;;;;;4.30;3.08;;;12.80;78.80;;;;;;5098185;28;20039;-73
2023/09/24 03:54:26;;;;;;;6.10;3.35;;;12.80;78.90;;;;;;5093944;28;20069;-73
2023/09/24 03:56:51;;;;;;;5.45;4.13;;;12.80;79.10;;;;;;5094961;28;20386;-73
2023/09/24 03:59:17;;;;;;;7.82;4.85;;;12.80;79.30;;;;;;5098519;28;20040;-73
2023/09/24 04:01:43;;;;;;;6.90;4.65;;;12.70;79.20;;;;;;5100205;28;20061;-73
2023/09/24 04:04:11;;;;;;;10.55;4.93;;;12.70;79.20;;;;;;5084125;28;20139;-73
2023/09/24 04:06:37;;;;;;;10.70;5.07;;;12.70;79.20;;;;;;5094437;28;20048;-73
2023/09/24 04:09:02;;;;;;;12.52;5.40;;;12.60;79.10;;;;;;5094632;28;20392;-73
2023/09/24 04:11:28;;;;;;;6.22;4.05;;;12.60;79.10;;;;;;5083237;28;20452;-73
2023/09/24 04:13:54;;;;;;;7.10;3.95;;;12.60;79.20;;;;;;5113253;28;20050;-73
2023/09/24 04:16:22;;;;;;;8.10;4.38;;;12.60;79.40;;;;;;5076859;28;20035;-73
2023/09/24 04:18:48;;;;;;;8.05;4.82;;;12.50;79.40;;;;;;5081576;28;20052;-73
2023/09/24 04:21:18;;;;;;;6.13;4.55;;;12.50;79.40;;;;;;5107221;28;20059;-73
2023/09/24 04:23:44;;;;;;;8.02;5.60;;;12.50;79.40;;;;;;5097991;28;20395;-73
2023/09/24 04:26:22;;;;;;;7.53;4.68;;;12.40;79.30;;;;;;5114559;28;20039;-73
2023/09/24 04:28:54;;;;;;;8.98;4.50;;;12.40;79.30;;;;;;5114125;28;20124;-73
2023/09/24 04:31:20;;;;;;;8.05;4.90;;;12.40;79.30;;;;;;5100248;28;20115;-73
2023/09/24 04:33:47;;;;;;;8.23;4.43;;;12.30;79.40;;;;;;5111394;28;20126;-74
2023/09/24 04:36:14;;;;;;;9.50;5.13;;;12.30;79.40;;;;;;5096849;28;20040;-74
2023/09/24 04:38:41;;;;;;;7.72;5.20;;;12.20;79.50;;;;;;5077985;28;20082;-74
2023/09/24 04:41:07;;;;;;;9.30;4.78;;;12.20;79.60;;;;;;5078428;28;20032;-74
2023/09/24 04:43:35;;;;;;;10.27;5.78;;;12.20;79.70;;;;;;5107451;28;20042;-73
2023/09/24 04:46:04;;;;;;;7.70;4.90;;;12.10;79.60;;;;;;5077277;28;20040;-73
2023/09/24 04:48:32;;;;;;;7.82;5.20;;;12.10;79.70;;;;;;5093726;28;20548;-73
2023/09/24 04:50:58;;;;;;;9.00;5.53;;;12.00;79.70;;;;;;5087440;28;20402;-73
2023/09/24 04:53:23;;;;;;;7.35;4.90;;;12.00;79.70;;;;;;5112219;28;20050;-73
2023/09/24 04:55:49;;;;;;;11.13;5.35;;;12.00;79.90;;;;;;5097220;28;20032;-73
2023/09/24 04:58:15;;;;;;;8.52;5.00;;;12.00;80.10;;;;;;5103523;28;20101;-73
2023/09/24 05:00:41;;;;;;;11.15;5.75;;;12.00;80.30;;;;;;5094620;28;20031;-74
2023/09/24 05:03:07;;;;;;;7.75;5.78;;;12.00;80.30;;;;;;5081994;28;20035;-73
2023/09/24 05:05:33;;;;;;;7.95;5.03;;;11.90;80.20;;;;;;5079662;28;20051;-73
2023/09/24 05:07:59;;;;;;;10.27;5.30;;;11.90;80.20;;;;;;5076667;28;20100;-73
2023/09/24 05:10:25;;;;;;;11.05;5.57;;;11.90;80.20;;;;;;5093300;28;20127;-73
2023/09/24 05:12:51;;;;;;;9.52;4.85;;;11.80;80.20;;;;;;5076296;28;20130;-73
2023/09/24 05:15:16;;;;;;;9.60;5.90;;;11.90;80.20;;;;;;5101529;28;20114;-73
2023/09/24 05:17:42;;;;;;;7.07;4.10;;;11.90;80.30;;;;;;5105153;28;20040;-73
2023/09/24 05:20:09;;;;;;;8.95;4.32;;;11.80;80.30;;;;;;5104909;28;20048;-73
2023/09/24 05:22:34;;;;;;;9.13;5.55;;;11.80;80.50;;;;;;5111196;28;20118;-73
2023/09/24 05:25:00;;;;;;;9.80;5.28;;;11.80;80.60;;;;;;5103810;28;20119;-73
2023/09/24 05:27:29;;;;;;;8.90;5.40;;;11.80;80.60;;;;;;5092914;28;20047;-74
2023/09/24 05:29:54;;;;;;;8.27;5.18;;;11.80;80.60;;;;;;5095066;28;20044;-73
2023/09/24 05:32:20;;;;;;;7.45;5.13;;;11.80;80.60;;;;;;5095984;28;20054;-73
2023/09/24 05:34:52;;;;;;;10.38;5.97;;;11.80;80.50;;;;;;5081079;28;20032;-73
2023/09/24 05:37:18;;;;;;;11.60;5.57;;;11.80;80.50;;;;;;5096984;28;20054;-73
2023/09/24 05:39:43;;;;;;;8.10;4.93;;;11.80;80.40;;;;;;5093315;28;20035;-73
2023/09/24 05:42:09;;;;;;;9.48;4.88;;;11.80;80.40;;;;;;5094465;28;20134;-73
2023/09/24 05:44:35;;;;;;;8.32;5.72;;;11.80;80.40;;;;;;5109329;28;20082;-73
2023/09/24 05:47:01;;;;;;;9.63;5.18;;;11.80;80.40;;;;;;5112919;28;20386;-73
2023/09/24 05:49:27;;;;;;;7.22;4.28;;;11.80;80.40;;;;;;5112993;28;20076;-73
2023/09/24 05:51:52;;;;;;;7.28;3.63;;;11.80;80.50;;;;;;5099403;28;20044;-73
2023/09/24 05:54:18;;;;;;;8.63;4.88;;;11.80;80.60;;;;;;5090127;28;20032;-73
2023/09/24 05:56:44;;;;;;;9.77;6.40;;;11.80;80.70;;;;;;5081145;28;20035;-73
2023/09/24 05:59:09;;;;;;;9.00;4.65;;;11.80;80.70;;;;;;5077135;28;20032;-74
2023/09/24 06:01:35;;;;;;;8.52;4.05;;;11.80;80.70;;;;;;5110060;28;20082;-73
2023/09/24 06:04:01;;;;;;;7.68;4.20;;;11.90;80.80;;;;;;5095691;28;20036;-73
2023/09/24 06:06:26;;;;;;;8.18;5.13;;;11.90;80.90;;;;;;5094743;28;20130;-73
2023/09/24 06:08:55;;;;;;;8.90;5.65;;;11.90;81.00;;;;;;5099439;28;20071;-73
2023/09/24 06:11:21;;;;;;;7.15;5.15;;;11.90;80.80;;;;;;5099911;28;20082;-73
2023/09/24 06:13:46;;;;;;;9.60;5.38;;;11.90;80.70;;;;;;5112521;28;20071;-74
2023/09/24 06:16:12;;;;;;;7.78;5.85;;;11.90;80.60;;;;;;5090772;28;20035;-73
2023/09/24 06:18:38;;;;;;;7.90;5.97;;;11.90;80.50;;;;;;5099818;28;20060;-73
2023/09/24 06:21:04;;;;;;;8.57;5.97;;;11.90;80.50;;;;;;5076981;28;20039;-73
2023/09/24 06:23:30;;;;;;;12.70;6.30;;;11.90;80.50;;;;;;5075845;28;20035;-73
2023/09/24 06:25:57;;;;;;;10.00;6.00;;;12.00;80.70;;;;;;5100982;28;20039;-73
2023/09/24 06:28:24;;;;;;;8.73;5.78;;;12.00;80.60;;;;;;5112299;28;20054;-73
2023/09/24 06:31:01;;;;;;;9.60;5.63;;;12.00;80.70;;;;;;5086506;28;20044;-73
2023/09/24 06:33:27;;;;;;;9.95;5.38;;;12.00;80.80;;;;;;5091723;28;20123;-73
2023/09/24 06:35:54;;;;;;;9.13;6.68;;;12.00;80.90;;;;;;5096269;28;20031;-73
2023/09/24 06:38:19;;;;;;;7.63;5.57;;;12.00;81.00;;;;;;5112050;28;20039;-73
2023/09/24 06:40:45;;;;;;;8.77;6.18;;;12.00;81.00;;;;;;5110324;28;20050;-73
2023/09/24 06:43:10;;;;;;;10.70;6.65;;;12.00;81.00;;;;;;5079894;28;20123;-73
2023/09/24 06:45:36;;;;;;;10.73;6.32;;;12.10;81.10;;;;;;5103945;28;20085;-73
2023/09/24 06:48:03;;;;;;;11.77;6.82;;;12.10;81.10;;;;;;5109631;28;20089;-73
2023/09/24 06:50:29;;;;;;;15.63;7.28;;;12.10;81.20;;;;;;5100989;28;20057;-72
2023/09/24 06:52:54;;;;;;;14.32;7.57;;;12.10;81.10;;;;;;5111870;28;20040;-72
2023/09/24 06:55:20;;;;;;;11.45;7.68;;;12.10;81.10;;;;;;5111901;28;20114;-73
2023/09/24 06:57:46;;;;;;;13.32;7.40;;;12.20;81.20;;;;;;5098844;28;20131;-73
2023/09/24 07:00:12;;;;;;;10.75;7.72;;;12.20;81.30;;;;;;5109831;28;20044;-73
2023/09/24 07:02:38;;;;;;;10.45;7.28;;;12.20;81.40;;;;;;5074097;28;20036;-73
2023/09/24 07:05:05;;;;;;;11.60;7.10;;;12.20;81.50;;;;;;5084916;28;20038;-73
2023/09/24 07:07:31;;;;;;;9.98;7.07;;;12.20;81.60;;;;;;5111939;28;20487;-73
2023/09/24 07:09:59;;;;;;;15.63;8.45;;;12.20;81.60;;;;;;5112084;28;20070;-73
2023/09/24 07:12:25;;;;;;;11.52;7.30;;;12.30;81.70;;;;;;5109446;28;20048;-73
2023/09/24 07:14:50;;;;;;;12.02;7.53;;;12.30;81.70;;;;;;5088185;28;20028;-73
2023/09/24 07:17:16;;;;;;;11.80;7.28;;;12.30;81.70;;;;;;5099497;28;20032;-73
2023/09/24 07:19:42;;;;;;;11.27;7.28;;;12.30;81.70;;;;;;5091134;28;20055;-71
2023/09/24 07:22:08;;;;;;;15.30;7.43;;;12.40;81.70;;;;;;5091443;28;20048;-71
2023/09/24 07:24:33;;;;;;;10.77;6.82;;;12.40;81.70;;;;;;5092441;28;20028;-71
2023/09/24 07:27:02;;;;;;;11.30;7.03;;;12.50;81.80;;;;;;5091297;28;20040;-70
2023/09/24 07:29:30;;;;;;;10.35;7.00;;;12.50;81.80;;;;;;5098684;28;20055;-71
2023/09/24 07:31:56;;;;;;;12.40;7.40;;;12.50;81.90;;;;;;5097788;28;20058;-69
2023/09/24 07:34:23;;;;;;;12.75;6.40;;;12.60;82.00;;;;;;5098454;28;20036;-69
2023/09/24 07:36:48;;;;;;;11.73;7.07;;;12.60;82.00;;;;;;5105898;28;20028;-71
2023/09/24 07:39:14;;;;;;;14.13;7.32;;;12.70;81.90;;;;;;5112490;28;20047;-71
2023/09/24 07:41:40;;;;;;;9.77;6.55;;;12.70;81.80;;;;;;5105586;28;20062;-70
2023/09/24 07:44:06;;;;;;;13.65;7.00;;;12.80;81.70;;;;;;5106458;28;20633;-70
2023/09/24 07:46:32;;;;;;;12.05;7.95;;;12.80;81.60;;;;;;5097079;28;20039;-70
2023/09/24 07:48:57;;;;;;;9.90;5.97;;;12.80;81.40;;;;;;5101290;28;20039;-70
2023/09/24 07:51:23;;;;;;;12.57;6.78;;;12.90;81.40;;;;;;5115355;28;20075;-70
2023/09/24 07:53:50;;;;;;;9.40;6.80;;;12.90;81.30;;;;;;5100212;28;20066;-70
2023/09/24 07:56:16;;;;;;;10.68;7.20;;;13.00;81.40;;;;;;5094918;28;20414;-71
2023/09/24 07:58:42;;;;;;;9.38;7.15;;;13.00;81.50;;;;;;5110440;28;20075;-71
2023/09/24 08:01:13;;;;;;;12.20;6.95;;;13.10;81.60;;;;;;5106762;28;20468;-70
2023/09/24 08:03:39;;;;;;;8.30;5.95;;;13.30;82.10;;;;;;5093637;28;20499;-70
2023/09/24 08:06:06;;;;;;;11.00;5.57;;;13.40;82.30;;;;;;5096144;28;20125;-70
2023/09/24 08:08:35;;;;;;;11.85;5.78;;;13.50;82.20;;;;;;5070706;28;20032;-71
2023/09/24 08:11:02;;;;;;;11.07;5.55;;;13.70;82.10;;;;;;5103634;28;20043;-70
2023/09/24 08:13:28;;;;;;;9.60;6.30;;;13.90;81.90;;;;;;5102593;28;20047;-71
2023/09/24 08:15:57;;;;;;;9.80;5.68;;;14.00;81.60;;;;;;5111977;28;20032;-70
2023/09/24 08:18:23;;;;;;;8.98;5.40;;;14.20;81.20;;;;;;5107840;28;20051;-70
2023/09/24 08:20:49;;;;;;;10.35;5.65;;;14.40;80.70;;;;;;5089034;28;20032;-71
2023/09/24 08:23:15;;;;;;;9.10;5.07;;;14.60;80.10;;;;;;5098150;28;20050;-71
2023/09/24 08:25:41;;;;;;;7.18;4.43;;;14.90;79.80;;;;;;5096324;28;20134;-71
2023/09/24 08:28:08;;;;;;;9.57;4.60;;;15.10;79.10;;;;;;5079705;28;20551;-71
2023/09/24 08:30:34;;;;;;;9.40;4.68;;;15.30;78.60;;;;;;5094319;28;20036;-71
2023/09/24 08:33:00;;;;;;;9.77;4.93;;;15.50;77.20;;;;;;5100288;28;20051;-72
2023/09/24 08:35:26;;;;;;;10.18;4.75;;;15.70;77.00;;;;;;5111636;28;20040;-71
2023/09/24 08:37:52;;;;;;;9.35;3.67;;;15.90;76.60;;;;;;5099936;28;20039;-71
2023/09/24 08:40:18;;;;;;;7.95;4.07;;;16.20;76.20;;;;;;5077076;28;20043;-71
2023/09/24 08:42:49;;;;;;;5.90;3.33;;;16.40;75.90;;;;;;5097962;28;20044;-71
2023/09/24 08:45:18;;;;;;;9.35;4.20;;;16.70;75.10;;;;;;5098780;28;20472;-71
2023/09/24 08:47:45;;;;;;;9.30;3.78;;;16.90;74.30;;;;;;5108328;28;20372;-70
2023/09/24 08:50:11;;;;;;;6.25;3.80;;;17.20;73.60;;;;;;5112697;28;20094;-71
2023/09/24 08:52:39;;;;;;;7.60;4.05;;;17.40;72.00;;;;;;5111548;28;20043;-71
2023/09/24 08:55:07;;;;;;;7.63;3.80;;;17.60;70.80;;;;;;5096439;28;20124;-72
2023/09/24 08:57:37;;;;;;;6.20;3.47;;;17.70;70.00;;;;;;5094181;28;20069;-71
2023/09/24 09:00:06;;;;;;;6.25;3.08;;;18.00;69.70;;;;;;5092017;28;20520;-71
2023/09/24 09:02:34;;;;;;;7.00;2.83;;;18.20;68.40;;;;;;5093351;28;20044;-70
2023/09/24 09:05:00;;;;;;;6.75;3.10;;;18.30;67.30;;;;;;5094394;28;20448;-70
2023/09/24 09:07:25;;;;;;;7.38;3.58;;;18.40;66.60;;;;;;5103606;28;20044;-70
2023/09/24 09:09:55;;;;;;;7.05;2.85;;;18.50;65.80;;;;;;5110668;28;20035;-71
2023/09/24 09:12:23;;;;;;;6.70;2.65;;;18.60;64.60;;;;;;5109637;28;20118;-70
2023/09/24 09:14:49;;;;;;;6.47;3.13;;;18.80;64.60;;;;;;5085322;28;20040;-70
2023/09/24 09:17:15;;;;;;;6.93;3.25;;;18.90;63.80;;;;;;5086581;28;20043;-70
2023/09/24 09:19:52;;;;;;;6.13;2.40;;;19.00;62.60;;;;;;5107649;28;20431;-71
2023/09/24 09:22:22;;;;;;;5.25;2.28;;;19.10;62.50;;;;;;5095562;28;20085;-70
2023/09/24 09:25:15;;;;;;;5.82;2.97;;;19.20;63.20;;;;;;5107943;28;20047;-71
2023/09/24 09:27:43;;;;;;;5.20;2.90;;;19.30;62.80;;;;;;5080727;28;20048;-71
2023/09/24 09:30:15;;;;;;;8.05;3.35;;;19.40;61.80;;;;;;5077863;28;20483;-71
2023/09/24 09:32:42;;;;;;;6.47;2.85;;;19.50;61.60;;;;;;5092542;28;20047;-71
2023/09/24 09:35:08;;;;;;;6.57;2.78;;;19.70;61.90;;;;;;5105823;28;20045;-71
2023/09/24 09:37:33;;;;;;;6.05;3.00;;;19.70;59.70;;;;;;5106334;28;20029;-71
2023/09/24 09:39:59;;;;;;;6.80;2.50;;;19.80;59.90;;;;;;5105276;28;20031;-71
2023/09/24 09:42:29;;;;;;;7.07;2.85;;;19.90;59.60;;;;;;5100886;28;20052;-71
2023/09/24 09:44:59;;;;;;;5.13;2.75;;;19.90;59.40;;;;;;5094037;28;20075;-72
2023/09/24 09:47:28;;;;;;;7.80;2.78;;;20.00;59.40;;;;;;5092352;28;20055;-71
2023/09/24 09:50:00;;;;;;;5.32;2.33;;;20.00;59.50;;;;;;5100020;28;20077;-70
2023/09/24 09:52:48;;;;;;;5.93;2.60;;;20.10;58.90;;;;;;5106029;28;20122;-74
2023/09/24 09:55:14;;;;;;;5.10;2.63;;;20.10;58.00;;;;;;5106007;28;20039;-74
2023/09/24 09:57:43;;;;;;;4.38;2.40;;;20.10;58.10;;;;;;5089294;28;20040;-73
2023/09/24 10:00:12;;;;;;;5.80;2.35;;;20.10;57.80;;;;;;5106887;28;20027;-73
2023/09/24 10:02:41;;;;;;;5.07;1.92;;;20.10;58.20;;;;;;5103829;28;20097;-73
2023/09/24 10:05:08;;;;;;;5.57;2.47;;;20.10;58.40;;;;;;5101385;28;20047;-73
2023/09/24 10:07:37;;;;;;;7.72;2.40;;;20.20;58.40;;;;;;5083839;28;20370;-73
2023/09/24 10:10:31;;;;;;;6.00;2.25;;;20.20;57.20;;;;;;5083354;28;20364;-72
2023/09/24 10:12:58;;;;;;;6.20;2.43;;;20.30;57.10;;;;;;5096440;28;20035;-73
2023/09/24 10:15:27;;;;;;;5.95;2.83;;;20.30;56.80;;;;;;5103277;28;20106;-73
2023/09/24 10:18:11;;;;;;;4.82;2.63;;;20.20;57.20;;;;;;5102544;28;20385;-72
2023/09/24 10:20:49;;;;;;;4.30;1.92;;;20.30;57.40;;;;;;5102504;28;20044;-72
2023/09/24 10:23:30;;;;;;;5.45;1.90;;;20.30;56.60;;;;;;5102405;28;20051;-73
2023/09/24 10:26:03;;;;;;;4.60;2.00;;;20.20;56.10;;;;;;5101840;28;20126;-74
2023/09/24 10:28:47;;;;;;;7.70;2.30;;;20.10;56.10;;;;;;5086274;28;20118;-79
2023/09/24 10:31:13;;;;;;;5.82;2.47;;;20.10;57.00;;;;;;5101255;28;20041;-74
2023/09/24 10:34:00;;;;;;;4.13;1.52;;;20.10;56.90;;;;;;5081090;28;20397;-74
2023/09/24 10:36:32;;;;;;;6.07;2.40;;;20.10;57.60;;;;;;5101575;28;20036;-74
2023/09/24 10:39:04;;;;;;;4.47;1.80;;;20.20;57.80;;;;;;5099424;28;20650;-75
2023/09/24 10:41:32;;;;;;;6.13;1.90;;;20.20;56.60;;;;;;5113318;27;20122;-74
2023/09/24 10:44:23;;;;;;;4.03;1.80;;;20.20;56.20;;;;;;5101393;28;20036;-74
2023/09/24 10:46:49;;;;;;;3.05;1.40;;;20.20;56.90;;;;;;5086340;28;20047;-75
2023/09/24 10:49:24;;;;;;;3.17;1.45;;;20.20;56.90;;;;;;5085216;28;20067;-76
2023/09/24 10:51:56;;;;;;;6.13;2.08;;;20.30;57.00;;;;;;5080254;28;20123;-75
2023/09/24 10:54:21;;;;;;;5.72;2.15;;;20.30;57.00;;;;;;5101865;28;20032;-74
2023/09/24 10:56:47;;;;;;;3.28;1.33;;;20.30;57.50;;;;;;5068645;28;20036;-75
2023/09/24 10:59:16;;;;;;;4.15;1.83;;;20.40;56.70;;;;;;5101586;28;20028;-75
2023/09/24 11:01:43;;;;;;;6.20;1.88;;;20.40;56.00;;;;;;5091954;28;20042;-75
2023/09/24 11:04:09;;;;;;;4.43;1.63;;;20.30;55.50;;;;;;5108824;28;20035;-76
2023/09/24 11:06:35;;;;;;;7.82;1.83;;;20.30;56.30;;;;;;5079111;28;20047;-75
2023/09/24 11:09:21;;;;;;;4.93;1.67;;;20.30;55.30;;;;;;5088559;28;20067;-75
2023/09/24 11:11:47;;;;;;;4.10;1.23;;;20.30;56.00;;;;;;5108243;28;20043;-75
2023/09/24 11:14:22;;;;;;;4.47;1.52;;;20.30;56.40;;;;;;5114041;28;20035;-74
2023/09/24 11:16:49;;;;;;;4.35;1.48;;;20.30;56.10;;;;;;5111525;28;20115;-75
2023/09/24 11:19:45;;;;;;;3.05;1.30;;;20.30;55.70;;;;;;5104811;28;20071;-74
2023/09/24 11:22:19;;;;;;;3.83;1.65;;;20.40;55.10;;;;;;5102633;28;20082;-74
2023/09/24 11:24:45;;;;;;;3.05;1.35;;;20.40;55.00;;;;;;5097342;28;20487;-75
2023/09/24 11:27:11;;;;;;;4.65;1.48;;;20.40;55.50;;;;;;5078815;28;20079;-74
2023/09/24 11:29:37;;;;;;;3.53;1.83;;;20.40;54.60;;;;;;5095209;28;20115;-74
2023/09/24 11:32:02;;;;;;;4.70;1.55;;;20.40;53.90;;;;;;5078811;28;20044;-75
2023/09/24 11:34:29;;;;;;;3.75;1.50;;;20.50;53.60;;;;;;5087572;28;20050;-74
2023/09/24 11:36:56;;;;;;;4.35;1.48;;;20.40;53.90;;;;;;5104319;28;20471;-74
2023/09/24 11:39:22;;;;;;;6.35;1.98;;;20.50;53.70;;;;;;5105766;28;20027;-74
2023/09/24 11:41:49;;;;;;;5.45;1.55;;;20.50;54.00;;;;;;5083325;28;20399;-74
2023/09/24 11:44:14;;;;;;;4.88;1.65;;;20.50;53.90;;;;;;5105043;28;20075;-74
2023/09/24 11:46:40;;;;;;;4.95;1.40;;;20.50;53.60;;;;;;5099979;28;20493;-75
2023/09/24 11:49:06;;;;;;;4.72;1.60;;;20.40;53.70;;;;;;5072289;28;20043;-74
2023/09/24 11:51:33;;;;;;;6.82;1.60;;;20.50;52.90;;;;;;5100472;28;20043;-75
2023/09/24 11:53:59;;;;;;;2.22;1.25;;;20.40;53.50;;;;;;5102397;28;20042;-74
2023/09/24 11:56:25;;;;;;;3.40;1.70;;;20.40;54.20;;;;;;5103779;28;20154;-75
2023/09/24 11:58:51;;;;;;;8.43;3.25;;;20.40;54.10;;;;;;5089423;28;20114;-74
2023/09/24 12:01:17;;;;;;;4.80;1.70;;;20.40;54.10;;;;;;5086271;28;20158;-75
2023/09/24 12:03:43;;;;;;;3.42;1.17;;;20.40;53.60;;;;;;5095444;28;20442;-75
2023/09/24 12:06:09;;;;;;;3.92;1.42;;;20.40;54.10;;;;;;5105061;28;20080;-73
2023/09/24 12:08:35;;;;;;;5.43;1.70;;;20.30;54.90;;;;;;5109311;28;20035;-74
2023/09/24 12:11:01;;;;;;;4.90;1.58;;;20.30;54.60;;;;;;5111950;28;20051;-74
2023/09/24 12:13:27;;;;;;;4.53;1.50;;;20.30;54.40;;;;;;5094120;28;20046;-74
2023/09/24 12:15:52;;;;;;;5.97;1.65;;;20.30;54.60;;;;;;5099287;28;20168;-74
2023/09/24 12:18:18;;;;;;;4.43;1.20;;;20.20;54.90;;;;;;5097460;28;20036;-74
2023/09/24 12:20:44;;;;;;;5.65;1.65;;;20.20;55.40;;;;;;5097720;28;20039;-71
2023/09/24 12:23:11;;;;;;;3.40;1.90;;;20.20;55.90;;;;;;5104334;28;20067;-72
2023/09/24 12:25:39;;;;;;;3.50;2.03;;;20.20;55.20;;;;;;5107856;28;20436;-72
2023/09/24 12:28:09;;;;;;;4.15;1.30;;;20.20;55.20;;;;;;5105247;28;20127;-72
2023/09/24 12:30:36;;;;;;;4.40;1.63;;;20.20;55.60;;;;;;5112229;28;20242;-71
2023/09/24 12:33:01;;;;;;;5.78;1.48;;;20.10;55.60;;;;;;5080666;28;20123;-72
2023/09/24 12:35:28;;;;;;;3.97;1.27;;;20.20;56.00;;;;;;5114259;28;20446;-72
2023/09/24 12:37:54;;;;;;;4.97;2.00;;;20.10;56.30;;;;;;5114064;28;20082;-72
2023/09/24 12:40:21;;;;;;;4.90;1.40;;;20.20;56.00;;;;;;5095587;28;20067;-71
2023/09/24 12:42:48;;;;;;;3.75;1.30;;;20.10;55.90;;;;;;5097673;28;20387;-73
2023/09/24 12:45:14;;;;;;;5.30;1.77;;;20.10;56.20;;;;;;5114418;28;20040;-73
2023/09/24 12:47:40;;;;;;;6.13;1.73;;;20.10;55.70;;;;;;5097193;28;20036;-73